sensor_id;sensor_type;location;lat;lon;timestamp;pressure;altitude;pressure_sealevel;temperature;humidity
75312;BME280;63906;55.686;37.532;2023-02-13T00:00:49;99774.25;;;-6.50;78.24
75312;BME280;63906;55.686;37.532;2023-02-13T00:05:50;99749.03;;;-6.58;78.58
75312;BME280;63906;55.686;37.532;2023-02-13T00:10:50;99741.47;;;-6.43;78.03
75312;BME280;63906;55.686;37.532;2023-02-13T00:15:58;99744.22;;;-6.15;78.08
75312;BME280;63906;55.686;37.532;2023-02-13T00:21:01;99745.47;;;-6.06;78.28
75312;BME280;63906;55.686;37.532;2023-02-13T00:26:08;99740.50;;;-6.09;78.08
75312;BME280;63906;55.686;37.532;2023-02-13T00:31:11;99733.22;;;-5.85;78.08
75312;BME280;63906;55.686;37.532;2023-02-13T00:36:15;99727.75;;;-5.79;77.99
75312;BME280;63906;55.686;37.532;2023-02-13T00:41:16;99722.81;;;-5.82;78.11
75312;BME280;63906;55.686;37.532;2023-02-13T00:46:17;99675.53;;;-5.92;78.06
75312;BME280;63906;55.686;37.532;2023-02-13T00:51:18;99691.53;;;-5.73;77.98
75312;BME280;63906;55.686;37.532;2023-02-13T00:56:18;99679.63;;;-5.74;77.22
75312;BME280;63906;55.686;37.532;2023-02-13T01:01:19;99681.75;;;-5.66;77.91
75312;BME280;63906;55.686;37.532;2023-02-13T01:06:19;99677.16;;;-5.46;78.21
75312;BME280;63906;55.686;37.532;2023-02-13T01:11:20;99683.16;;;-5.31;77.22
75312;BME280;63906;55.686;37.532;2023-02-13T01:16:21;99673.25;;;-5.37;77.11
75312;BME280;63906;55.686;37.532;2023-02-13T01:21:21;99657.72;;;-5.50;76.96
75312;BME280;63906;55.686;37.532;2023-02-13T01:26:23;99653.53;;;-5.51;77.75
75312;BME280;63906;55.686;37.532;2023-02-13T01:31:24;99646.31;;;-5.44;76.89
75312;BME280;63906;55.686;37.532;2023-02-13T01:36:25;99647.91;;;-5.27;77.42
75312;BME280;63906;55.686;37.532;2023-02-13T01:41:26;99609.31;;;-5.40;77.02
75312;BME280;63906;55.686;37.532;2023-02-13T01:51:32;99602.34;;;-5.38;77.02
75312;BME280;63906;55.686;37.532;2023-02-13T01:56:40;99610.16;;;-5.25;76.45
75312;BME280;63906;55.686;37.532;2023-02-13T02:01:42;99606.47;;;-5.35;75.65
75312;BME280;63906;55.686;37.532;2023-02-13T02:06:53;99577.72;;;-5.26;77.13
75312;BME280;63906;55.686;37.532;2023-02-13T02:12:13;99581.22;;;-5.27;76.03
75312;BME280;63906;55.686;37.532;2023-02-13T02:17:17;99589.97;;;-5.31;76.58
75312;BME280;63906;55.686;37.532;2023-02-13T02:22:25;99577.72;;;-5.12;75.63
75312;BME280;63906;55.686;37.532;2023-02-13T02:27:55;99578.44;;;-5.10;75.87
75312;BME280;63906;55.686;37.532;2023-02-13T02:34:05;99577.44;;;-5.07;75.58
75312;BME280;63906;55.686;37.532;2023-02-13T02:38:39;99566.91;;;-5.17;75.72
75312;BME280;63906;55.686;37.532;2023-02-13T02:44:10;99523.19;;;-5.30;75.38
75312;BME280;63906;55.686;37.532;2023-02-13T02:49:16;99545.19;;;-5.11;75.03
75312;BME280;63906;55.686;37.532;2023-02-13T02:54:47;99501.84;;;-5.16;75.75
75312;BME280;63906;55.686;37.532;2023-02-13T03:00:06;99504.59;;;-5.19;75.68
75312;BME280;63906;55.686;37.532;2023-02-13T03:05:30;99504.19;;;-4.99;75.96
75312;BME280;63906;55.686;37.532;2023-02-13T03:10:50;99503.81;;;-4.93;75.94
75312;BME280;63906;55.686;37.532;2023-02-13T03:16:14;99506.34;;;-4.78;76.07
75312;BME280;63906;55.686;37.532;2023-02-13T03:37:38;99449.09;;;-5.20;77.54
75312;BME280;63906;55.686;37.532;2023-02-13T03:48:03;99417.66;;;-5.24;76.32
75312;BME280;63906;55.686;37.532;2023-02-13T03:53:27;99400.50;;;-5.23;76.93
75312;BME280;63906;55.686;37.532;2023-02-13T03:58:33;99439.53;;;-4.91;77.17
75312;BME280;63906;55.686;37.532;2023-02-13T04:09:39;99441.16;;;-4.36;77.53
75312;BME280;63906;55.686;37.532;2023-02-13T04:20:09;99418.16;;;-4.38;77.40
75312;BME280;63906;55.686;37.532;2023-02-13T04:25:12;99388.06;;;-4.75;77.27
75312;BME280;63906;55.686;37.532;2023-02-13T04:30:13;99388.75;;;-4.59;78.17
75312;BME280;63906;55.686;37.532;2023-02-13T04:35:14;99379.31;;;-4.46;78.04
75312;BME280;63906;55.686;37.532;2023-02-13T04:40:14;99357.72;;;-4.30;78.20
75312;BME280;63906;55.686;37.532;2023-02-13T04:45:15;99359.59;;;-4.32;78.65
75312;BME280;63906;55.686;37.532;2023-02-13T04:50:16;99334.91;;;-4.35;78.98
75312;BME280;63906;55.686;37.532;2023-02-13T04:55:17;99357.22;;;-4.23;78.04
75312;BME280;63906;55.686;37.532;2023-02-13T05:00:19;99339.81;;;-3.94;78.63
75312;BME280;63906;55.686;37.532;2023-02-13T05:05:19;99306.75;;;-4.24;79.38
75312;BME280;63906;55.686;37.532;2023-02-13T05:10:20;99328.59;;;-3.93;78.37
75312;BME280;63906;55.686;37.532;2023-02-13T05:15:21;99289.84;;;-3.90;78.10
75312;BME280;63906;55.686;37.532;2023-02-13T05:20:22;99279.06;;;-3.95;78.51
75312;BME280;63906;55.686;37.532;2023-02-13T05:25:23;99259.97;;;-4.16;78.32
75312;BME280;63906;55.686;37.532;2023-02-13T05:30:24;99299.84;;;-3.61;77.76
75312;BME280;63906;55.686;37.532;2023-02-13T05:35:24;99291.66;;;-3.66;78.01
75312;BME280;63906;55.686;37.532;2023-02-13T05:40:25;99283.34;;;-3.83;77.99
75312;BME280;63906;55.686;37.532;2023-02-13T05:45:27;99263.22;;;-3.89;78.83
75312;BME280;63906;55.686;37.532;2023-02-13T05:50:27;99288.66;;;-3.60;78.19
75312;BME280;63906;55.686;37.532;2023-02-13T05:55:28;99273.13;;;-3.71;78.39
75312;BME280;63906;55.686;37.532;2023-02-13T06:00:28;99262.03;;;-3.72;78.79
75312;BME280;63906;55.686;37.532;2023-02-13T06:05:29;99298.50;;;-3.67;77.37
75312;BME280;63906;55.686;37.532;2023-02-13T06:10:29;99269.63;;;-3.70;78.50
75312;BME280;63906;55.686;37.532;2023-02-13T06:15:30;99275.56;;;-3.57;78.20
75312;BME280;63906;55.686;37.532;2023-02-13T06:20:30;99290.81;;;-3.19;78.81
75312;BME280;63906;55.686;37.532;2023-02-13T06:25:31;99274.78;;;-3.22;78.54
75312;BME280;63906;55.686;37.532;2023-02-13T06:30:33;99276.13;;;-3.06;78.12
75312;BME280;63906;55.686;37.532;2023-02-13T06:35:33;99288.09;;;-2.93;77.35
75312;BME280;63906;55.686;37.532;2023-02-13T06:40:34;99271.03;;;-2.83;76.68
75312;BME280;63906;55.686;37.532;2023-02-13T06:45:36;99246.19;;;-2.95;76.52
75312;BME280;63906;55.686;37.532;2023-02-13T06:50:36;99265.56;;;-2.79;77.25
75312;BME280;63906;55.686;37.532;2023-02-13T06:55:37;99253.16;;;-2.62;76.16
75312;BME280;63906;55.686;37.532;2023-02-13T07:00:40;99252.69;;;-2.56;77.15
75312;BME280;63906;55.686;37.532;2023-02-13T07:05:42;99241.22;;;-2.63;77.23
75312;BME280;63906;55.686;37.532;2023-02-13T07:10:43;99218.69;;;-2.95;75.48
75312;BME280;63906;55.686;37.532;2023-02-13T07:15:44;99228.09;;;-2.72;77.29
75312;BME280;63906;55.686;37.532;2023-02-13T07:20:44;99216.41;;;-2.42;77.82
75312;BME280;63906;55.686;37.532;2023-02-13T07:25:45;99229.88;;;-2.38;77.41
75312;BME280;63906;55.686;37.532;2023-02-13T07:30:45;99197.19;;;-2.27;77.92
75312;BME280;63906;55.686;37.532;2023-02-13T07:35:47;99197.38;;;-1.96;77.54
75312;BME280;63906;55.686;37.532;2023-02-13T07:40:47;99201.31;;;-1.81;77.24
75312;BME280;63906;55.686;37.532;2023-02-13T07:45:48;99211.63;;;-1.81;77.02
75312;BME280;63906;55.686;37.532;2023-02-13T07:50:49;99189.97;;;-1.90;74.70
75312;BME280;63906;55.686;37.532;2023-02-13T07:55:49;99180.00;;;-1.94;75.75
75312;BME280;63906;55.686;37.532;2023-02-13T08:00:50;99193.41;;;-1.68;76.93
75312;BME280;63906;55.686;37.532;2023-02-13T08:05:51;99196.44;;;-1.95;75.50
75312;BME280;63906;55.686;37.532;2023-02-13T08:10:51;99164.94;;;-1.67;76.47
75312;BME280;63906;55.686;37.532;2023-02-13T08:16:11;99177.41;;;-1.83;75.99
75312;BME280;63906;55.686;37.532;2023-02-13T08:21:11;99176.63;;;-1.63;77.33
75312;BME280;63906;55.686;37.532;2023-02-13T08:26:14;99161.13;;;-1.63;77.54
75312;BME280;63906;55.686;37.532;2023-02-13T08:31:15;99160.41;;;-1.32;78.15
75312;BME280;63906;55.686;37.532;2023-02-13T08:36:16;99128.69;;;-1.44;77.57
75312;BME280;63906;55.686;37.532;2023-02-13T08:41:18;99075.94;;;-1.72;77.26
75312;BME280;63906;55.686;37.532;2023-02-13T08:46:20;99134.72;;;-1.34;77.40
75312;BME280;63906;55.686;37.532;2023-02-13T08:51:20;99123.41;;;-1.22;77.67
75312;BME280;63906;55.686;37.532;2023-02-13T08:56:21;99095.31;;;-1.36;77.93
75312;BME280;63906;55.686;37.532;2023-02-13T09:01:22;99119.53;;;-1.06;77.56
75312;BME280;63906;55.686;37.532;2023-02-13T09:06:23;99096.56;;;-1.10;76.84
75312;BME280;63906;55.686;37.532;2023-02-13T09:11:25;99119.59;;;-0.87;76.88
75312;BME280;63906;55.686;37.532;2023-02-13T09:16:26;99116.22;;;-0.88;77.53
75312;BME280;63906;55.686;37.532;2023-02-13T09:21:26;99100.16;;;-0.91;77.96
75312;BME280;63906;55.686;37.532;2023-02-13T09:26:27;99088.06;;;-0.91;78.00
75312;BME280;63906;55.686;37.532;2023-02-13T09:31:28;99062.91;;;-0.98;78.22
75312;BME280;63906;55.686;37.532;2023-02-13T09:36:28;99054.81;;;-0.74;77.89
75312;BME280;63906;55.686;37.532;2023-02-13T09:41:41;99019.19;;;-0.80;78.17
75312;BME280;63906;55.686;37.532;2023-02-13T09:46:45;99044.09;;;-0.50;78.26
75312;BME280;63906;55.686;37.532;2023-02-13T09:51:49;99005.50;;;-0.42;78.38
75312;BME280;63906;55.686;37.532;2023-02-13T09:57:07;99029.56;;;-0.13;78.14
75312;BME280;63906;55.686;37.532;2023-02-13T10:07:46;99032.97;;;0.17;77.45
75312;BME280;63906;55.686;37.532;2023-02-13T10:18:15;98989.84;;;-0.12;77.99
75312;BME280;63906;55.686;37.532;2023-02-13T10:23:29;99007.78;;;-0.01;77.62
75312;BME280;63906;55.686;37.532;2023-02-13T10:28:39;99018.03;;;0.01;78.05
75312;BME280;63906;55.686;37.532;2023-02-13T10:39:23;99009.00;;;0.15;78.56
75312;BME280;63906;55.686;37.532;2023-02-13T11:10:35;98940.94;;;0.51;78.36
75312;BME280;63906;55.686;37.532;2023-02-13T11:15:35;98924.59;;;0.41;78.29
75312;BME280;63906;55.686;37.532;2023-02-13T11:20:41;98918.78;;;0.67;77.46
75312;BME280;63906;55.686;37.532;2023-02-13T11:25:58;98936.56;;;0.79;77.24
75312;BME280;63906;55.686;37.532;2023-02-13T11:36:31;98931.69;;;0.76;77.30
75312;BME280;63906;55.686;37.532;2023-02-13T11:41:41;98884.88;;;0.60;77.51
75312;BME280;63906;55.686;37.532;2023-02-13T11:46:45;98893.41;;;0.70;78.00
75312;BME280;63906;55.686;37.532;2023-02-13T11:51:54;98900.97;;;0.82;77.85
75312;BME280;63906;55.686;37.532;2023-02-13T12:07:29;98857.84;;;0.90;77.83
75312;BME280;63906;55.686;37.532;2023-02-13T12:17:37;98841.75;;;1.04;77.84
75312;BME280;63906;55.686;37.532;2023-02-13T12:33:08;98864.38;;;1.12;77.56
75312;BME280;63906;55.686;37.532;2023-02-13T12:38:25;98822.22;;;0.92;77.50
75312;BME280;63906;55.686;37.532;2023-02-13T12:48:58;98815.34;;;0.83;77.07
75312;BME280;63906;55.686;37.532;2023-02-13T12:55:00;98832.22;;;1.05;77.45
75312;BME280;63906;55.686;37.532;2023-02-13T13:10:57;98805.56;;;1.13;78.48
75312;BME280;63906;55.686;37.532;2023-02-13T13:21:50;98789.88;;;1.14;78.58
75312;BME280;63906;55.686;37.532;2023-02-13T13:26:55;98797.81;;;1.13;78.94
75312;BME280;63906;55.686;37.532;2023-02-13T13:32:06;98804.44;;;1.15;79.06
75312;BME280;63906;55.686;37.532;2023-02-13T13:47:51;98769.91;;;1.06;78.63
75312;BME280;63906;55.686;37.532;2023-02-13T13:53:22;98782.59;;;1.18;78.92
75312;BME280;63906;55.686;37.532;2023-02-13T13:58:32;98766.13;;;1.01;79.02
75312;BME280;63906;55.686;37.532;2023-02-13T14:03:34;98773.69;;;0.94;78.99
75312;BME280;63906;55.686;37.532;2023-02-13T14:13:39;98768.56;;;1.02;80.14
75312;BME280;63906;55.686;37.532;2023-02-13T14:18:44;98753.56;;;0.88;80.60
75312;BME280;63906;55.686;37.532;2023-02-13T14:23:47;98725.44;;;0.75;80.71
75312;BME280;63906;55.686;37.532;2023-02-13T14:33:59;98738.22;;;0.95;80.69
75312;BME280;63906;55.686;37.532;2023-02-13T14:44:03;98732.06;;;0.96;80.83
75312;BME280;63906;55.686;37.532;2023-02-13T14:59:29;98689.09;;;0.67;81.63
75312;BME280;63906;55.686;37.532;2023-02-13T15:04:39;98652.84;;;0.49;81.22
75312;BME280;63906;55.686;37.532;2023-02-13T15:09:46;98684.59;;;0.69;81.28
75312;BME280;63906;55.686;37.532;2023-02-13T15:14:51;98670.56;;;0.80;81.58
75312;BME280;63906;55.686;37.532;2023-02-13T15:20:02;98654.34;;;0.70;81.63
75312;BME280;63906;55.686;37.532;2023-02-13T15:25:06;98645.88;;;0.68;81.71
75312;BME280;63906;55.686;37.532;2023-02-13T15:35:31;98646.66;;;0.86;81.71
75312;BME280;63906;55.686;37.532;2023-02-13T15:40:36;98627.00;;;1.01;81.11
75312;BME280;63906;55.686;37.532;2023-02-13T15:45:42;98599.47;;;0.74;82.10
75312;BME280;63906;55.686;37.532;2023-02-13T15:50:43;98571.13;;;0.73;81.76
75312;BME280;63906;55.686;37.532;2023-02-13T15:55:58;98599.09;;;0.87;81.83
75312;BME280;63906;55.686;37.532;2023-02-13T16:01:03;98591.00;;;0.64;82.09
75312;BME280;63906;55.686;37.532;2023-02-13T16:06:06;98579.84;;;0.98;81.22
75312;BME280;63906;55.686;37.532;2023-02-13T16:11:18;98567.44;;;0.75;81.71
75312;BME280;63906;55.686;37.532;2023-02-13T16:16:19;98574.03;;;0.96;81.13
75312;BME280;63906;55.686;37.532;2023-02-13T16:21:26;98545.34;;;0.89;81.44
75312;BME280;63906;55.686;37.532;2023-02-13T16:26:28;98567.09;;;1.04;81.38
75312;BME280;63906;55.686;37.532;2023-02-13T16:31:30;98542.47;;;1.00;81.77
75312;BME280;63906;55.686;37.532;2023-02-13T16:36:33;98523.03;;;1.04;81.15
75312;BME280;63906;55.686;37.532;2023-02-13T16:41:33;98534.47;;;1.28;80.56
75312;BME280;63906;55.686;37.532;2023-02-13T16:46:36;98509.81;;;1.16;81.00
75312;BME280;63906;55.686;37.532;2023-02-13T16:51:54;98509.19;;;1.22;81.27
75312;BME280;63906;55.686;37.532;2023-02-13T16:56:58;98506.94;;;1.35;80.39
75312;BME280;63906;55.686;37.532;2023-02-13T17:02:22;98498.81;;;1.22;81.20
75312;BME280;63906;55.686;37.532;2023-02-13T17:07:27;98469.00;;;1.18;81.14
75312;BME280;63906;55.686;37.532;2023-02-13T17:12:30;98444.38;;;1.14;80.53
75312;BME280;63906;55.686;37.532;2023-02-13T17:17:31;98468.22;;;1.33;80.24
75312;BME280;63906;55.686;37.532;2023-02-13T17:27:35;98465.47;;;1.27;81.13
75312;BME280;63906;55.686;37.532;2023-02-13T17:32:36;98439.84;;;1.16;81.66
75312;BME280;63906;55.686;37.532;2023-02-13T17:37:37;98429.81;;;1.13;81.64
75312;BME280;63906;55.686;37.532;2023-02-13T17:42:37;98449.56;;;1.30;81.12
75312;BME280;63906;55.686;37.532;2023-02-13T17:47:38;98360.41;;;0.74;81.37
75312;BME280;63906;55.686;37.532;2023-02-13T17:52:40;98406.94;;;1.16;82.12
75312;BME280;63906;55.686;37.532;2023-02-13T17:57:41;98395.44;;;1.11;82.19
75312;BME280;63906;55.686;37.532;2023-02-13T18:02:44;98393.19;;;1.07;82.15
75312;BME280;63906;55.686;37.532;2023-02-13T18:07:45;98381.50;;;1.03;82.52
75312;BME280;63906;55.686;37.532;2023-02-13T18:12:47;98390.25;;;1.11;82.30
75312;BME280;63906;55.686;37.532;2023-02-13T18:17:48;98383.81;;;1.15;82.55
75312;BME280;63906;55.686;37.532;2023-02-13T18:22:48;98366.13;;;0.94;83.04
75312;BME280;63906;55.686;37.532;2023-02-13T18:27:52;98334.38;;;0.84;83.34
75312;BME280;63906;55.686;37.532;2023-02-13T18:32:55;98321.25;;;0.85;83.15
75312;BME280;63906;55.686;37.532;2023-02-13T18:37:57;98352.03;;;1.04;83.25
75312;BME280;63906;55.686;37.532;2023-02-13T18:42:58;98340.69;;;1.05;83.60
75312;BME280;63906;55.686;37.532;2023-02-13T18:47:59;98306.38;;;0.95;83.65
75312;BME280;63906;55.686;37.532;2023-02-13T18:53:00;98301.53;;;1.00;83.64
75312;BME280;63906;55.686;37.532;2023-02-13T18:58:01;98305.72;;;1.01;84.06
75312;BME280;63906;55.686;37.532;2023-02-13T19:03:02;98311.06;;;1.08;83.91
75312;BME280;63906;55.686;37.532;2023-02-13T19:08:02;98307.69;;;1.07;83.96
75312;BME280;63906;55.686;37.532;2023-02-13T19:13:04;98281.75;;;0.99;84.53
75312;BME280;63906;55.686;37.532;2023-02-13T19:18:05;98233.19;;;0.85;84.27
75312;BME280;63906;55.686;37.532;2023-02-13T19:23:06;98279.19;;;1.07;83.75
75312;BME280;63906;55.686;37.532;2023-02-13T19:28:06;98273.00;;;1.17;84.13
75312;BME280;63906;55.686;37.532;2023-02-13T19:33:07;98263.94;;;1.21;84.45
75312;BME280;63906;55.686;37.532;2023-02-13T19:38:08;98248.25;;;0.98;84.55
75312;BME280;63906;55.686;37.532;2023-02-13T19:43:08;98245.81;;;1.13;84.41
75312;BME280;63906;55.686;37.532;2023-02-13T19:48:09;98190.94;;;0.68;84.99
75312;BME280;63906;55.686;37.532;2023-02-13T19:53:10;98226.69;;;0.97;84.60
75312;BME280;63906;55.686;37.532;2023-02-13T19:58:11;98251.00;;;1.13;83.99
75312;BME280;63906;55.686;37.532;2023-02-13T20:03:19;98235.78;;;0.93;84.50
75312;BME280;63906;55.686;37.532;2023-02-13T20:08:19;98277.53;;;1.23;84.72
75312;BME280;63906;55.686;37.532;2023-02-13T20:13:20;98248.88;;;1.08;84.13
75312;BME280;63906;55.686;37.532;2023-02-13T20:18:21;98219.91;;;0.96;84.26
75312;BME280;63906;55.686;37.532;2023-02-13T20:23:21;98267.81;;;1.33;84.10
75312;BME280;63906;55.686;37.532;2023-02-13T20:28:22;98235.44;;;1.13;83.68
75312;BME280;63906;55.686;37.532;2023-02-13T20:33:22;98238.69;;;1.15;83.34
75312;BME280;63906;55.686;37.532;2023-02-13T20:38:23;98246.13;;;1.26;82.80
75312;BME280;63906;55.686;37.532;2023-02-13T20:43:24;98273.00;;;1.33;83.21
75312;BME280;63906;55.686;37.532;2023-02-13T20:48:25;98246.94;;;1.26;82.65
75312;BME280;63906;55.686;37.532;2023-02-13T20:53:27;98264.38;;;1.41;83.10
75312;BME280;63906;55.686;37.532;2023-02-13T20:58:29;98242.22;;;1.22;83.15
75312;BME280;63906;55.686;37.532;2023-02-13T21:03:31;98266.00;;;1.42;83.61
75312;BME280;63906;55.686;37.532;2023-02-13T21:08:31;98253.72;;;1.44;82.13
75312;BME280;63906;55.686;37.532;2023-02-13T21:13:33;98264.88;;;1.44;83.02
75312;BME280;63906;55.686;37.532;2023-02-13T21:18:35;98246.28;;;1.32;83.03
75312;BME280;63906;55.686;37.532;2023-02-13T21:23:36;98253.75;;;1.19;83.45
75312;BME280;63906;55.686;37.532;2023-02-13T21:28:38;98278.16;;;1.41;82.44
75312;BME280;63906;55.686;37.532;2023-02-13T21:33:39;98270.56;;;1.40;81.88
75312;BME280;63906;55.686;37.532;2023-02-13T21:38:41;98274.59;;;1.42;82.09
75312;BME280;63906;55.686;37.532;2023-02-13T21:43:42;98274.28;;;1.45;80.38
75312;BME280;63906;55.686;37.532;2023-02-13T21:48:59;98263.28;;;1.43;80.81
75312;BME280;63906;55.686;37.532;2023-02-13T21:54:00;98241.91;;;1.25;80.68
75312;BME280;63906;55.686;37.532;2023-02-13T21:59:01;98236.72;;;1.25;80.90
75312;BME280;63906;55.686;37.532;2023-02-13T22:04:05;98271.69;;;1.29;81.11
75312;BME280;63906;55.686;37.532;2023-02-13T22:09:09;98250.81;;;1.22;81.17
75312;BME280;63906;55.686;37.532;2023-02-13T22:14:13;98271.53;;;1.39;80.69
75312;BME280;63906;55.686;37.532;2023-02-13T22:19:15;98276.88;;;1.45;80.38
75312;BME280;63906;55.686;37.532;2023-02-13T22:24:16;98285.63;;;1.44;80.82
75312;BME280;63906;55.686;37.532;2023-02-13T22:29:17;98268.47;;;1.27;80.28
75312;BME280;63906;55.686;37.532;2023-02-13T22:34:17;98290.50;;;1.31;80.13
75312;BME280;63906;55.686;37.532;2023-02-13T22:39:19;98305.06;;;1.24;80.13
75312;BME280;63906;55.686;37.532;2023-02-13T22:44:20;98297.16;;;1.25;80.73
75312;BME280;63906;55.686;37.532;2023-02-13T22:49:21;98268.50;;;1.19;79.30
75312;BME280;63906;55.686;37.532;2023-02-13T22:54:22;98285.00;;;1.26;79.15
75312;BME280;63906;55.686;37.532;2023-02-13T22:59:22;98304.09;;;1.33;79.13
75312;BME280;63906;55.686;37.532;2023-02-13T23:04:23;98286.59;;;1.35;78.99
75312;BME280;63906;55.686;37.532;2023-02-13T23:09:23;98290.81;;;1.28;77.88
75312;BME280;63906;55.686;37.532;2023-02-13T23:14:24;98301.03;;;1.38;77.93
75312;BME280;63906;55.686;37.532;2023-02-13T23:19:25;98285.97;;;1.25;78.44
75312;BME280;63906;55.686;37.532;2023-02-13T23:24:27;98314.13;;;1.36;77.07
75312;BME280;63906;55.686;37.532;2023-02-13T23:29:28;98288.06;;;1.29;77.03
75312;BME280;63906;55.686;37.532;2023-02-13T23:34:29;98319.00;;;1.39;78.05
75312;BME280;63906;55.686;37.532;2023-02-13T23:39:29;98303.16;;;1.26;78.16
75312;BME280;63906;55.686;37.532;2023-02-13T23:44:30;98320.13;;;1.37;78.12
75312;BME280;63906;55.686;37.532;2023-02-13T23:49:30;98321.25;;;1.42;78.20
75312;BME280;63906;55.686;37.532;2023-02-13T23:54:31;98312.50;;;1.35;77.24
75312;BME280;63906;55.686;37.532;2023-02-13T23:59:31;98324.53;;;1.44;77.33
